createdAt,value
2022-10-05T00:01:06.814Z,0.47
2022-10-05T00:03:39.446Z,0.56
2022-10-05T00:06:11.909Z,0.55
2022-10-05T00:08:40.831Z,0.64
2022-10-05T00:11:13.596Z,0.66
2022-10-05T00:13:42.604Z,0.67
2022-10-05T00:16:19.652Z,0.74
2022-10-05T00:18:54.648Z,0.79
2022-10-05T00:21:27.063Z,0.83
2022-10-05T00:23:58.394Z,0.89
2022-10-05T00:26:28.468Z,0.94
2022-10-05T00:28:57.180Z,0.96
2022-10-05T00:31:31.683Z,0.99
2022-10-05T00:34:00.538Z,1.09
2022-10-05T00:36:29.376Z,1.11
2022-10-05T00:39:01.180Z,1.18
2022-10-05T00:41:55.344Z,1.18
2022-10-05T00:44:42.204Z,1.24
2022-10-05T00:47:37.308Z,1.26
2022-10-05T00:50:14.550Z,1.34
2022-10-05T00:53:43.940Z,1.33
2022-10-05T00:56:38.475Z,1.42
2022-10-05T00:59:34.335Z,1.50
2022-10-05T01:02:22.745Z,1.59
2022-10-05T01:05:37.632Z,1.67
2022-10-05T01:08:35.378Z,1.80
2022-10-05T01:11:10.132Z,1.89
2022-10-05T01:13:48.500Z,1.94
2022-10-05T01:16:35.558Z,2.02
2022-10-05T01:19:31.440Z,2.10
2022-10-05T01:22:23.415Z,2.17
2022-10-05T01:25:23.531Z,2.21
2022-10-05T01:28:17.411Z,2.28
2022-10-05T01:31:06.314Z,2.38
2022-10-05T01:33:50.085Z,2.47
2022-10-05T01:36:45.025Z,2.56
2022-10-05T01:39:26.373Z,2.71
2022-10-05T01:42:08.311Z,2.84
2022-10-05T01:44:59.966Z,2.94
2022-10-05T01:47:42.517Z,3.04
2022-10-05T01:50:28.628Z,3.30
2022-10-05T01:53:16.872Z,3.60
2022-10-05T01:56:05.235Z,3.79
2022-10-05T01:59:01.409Z,3.91
2022-10-05T02:01:46.274Z,3.97
2022-10-05T02:05:00.417Z,4.02
2022-10-05T02:07:44.496Z,4.30
2022-10-05T02:10:16.188Z,4.61
2022-10-05T02:12:46.823Z,4.89
2022-10-05T02:15:21.060Z,5.29
2022-10-05T02:17:53.786Z,5.88
2022-10-05T02:20:28.553Z,6.39
2022-10-05T02:23:03.065Z,6.82
2022-10-05T02:25:36.231Z,7.36
2022-10-05T02:28:15.782Z,8.25
2022-10-05T02:31:07.242Z,9.03
2022-10-05T02:33:37.206Z,10.76
2022-10-05T02:36:21.006Z,10.86
2022-10-05T02:39:10.353Z,10.57
2022-10-05T02:41:42.551Z,10.30
2022-10-05T02:44:33.313Z,11.04
2022-10-05T02:47:38.232Z,12.49
2022-10-05T02:50:25.107Z,14.01
2022-10-05T02:53:04.947Z,15.30
2022-10-05T02:56:00.388Z,16.73
2022-10-05T02:58:45.215Z,16.76
2022-10-05T03:01:25.342Z,16.85
2022-10-05T03:04:34.884Z,17.21
2022-10-05T03:07:12.280Z,17.96
2022-10-05T03:09:54.312Z,18.37
2022-10-05T03:12:52.398Z,18.11
2022-10-05T03:15:49.371Z,18.91
2022-10-05T03:18:43.515Z,19.17
2022-10-05T03:21:41.652Z,20.25
2022-10-05T03:24:13.727Z,20.42
2022-10-05T03:27:20.431Z,21.01
2022-10-05T03:30:07.430Z,20.90
2022-10-05T03:32:51.736Z,21.64
2022-10-05T03:35:33.891Z,22.42
2022-10-05T03:38:18.933Z,23.06
2022-10-05T03:41:03.161Z,23.07
2022-10-05T03:43:53.499Z,23.41
2022-10-05T03:46:50.113Z,23.96
2022-10-05T03:49:46.636Z,24.27
2022-10-05T03:52:24.297Z,24.50
2022-10-05T03:55:01.063Z,24.47
2022-10-05T03:57:38.095Z,24.71
2022-10-05T04:00:28.150Z,25.04
2022-10-05T04:03:05.713Z,25.90
2022-10-05T04:05:46.500Z,25.85
2022-10-05T04:08:44.120Z,26.11
2022-10-05T04:11:24.949Z,26.00
2022-10-05T04:14:03.998Z,25.93
2022-10-05T04:16:39.536Z,25.36
2022-10-05T04:19:47.228Z,25.16
2022-10-05T04:22:26.470Z,25.87
2022-10-05T04:25:16.904Z,24.85
2022-10-05T04:27:52.656Z,24.96
2022-10-05T04:30:25.201Z,25.70
2022-10-05T04:33:00.059Z,26.30
2022-10-05T04:36:11.923Z,26.67
2022-10-05T04:39:27.256Z,26.70
2022-10-05T04:42:23.524Z,26.31
2022-10-05T04:45:24.905Z,26.10
2022-10-05T04:48:17.540Z,25.78
2022-10-05T04:51:01.551Z,25.51
2022-10-05T04:53:55.792Z,25.38
2022-10-05T04:56:31.867Z,25.30
2022-10-05T04:59:28.974Z,25.43
2022-10-05T05:02:34.582Z,25.88
2022-10-05T05:05:28.533Z,25.87
2022-10-05T05:08:32.457Z,25.78
2022-10-05T05:11:25.433Z,25.70
2022-10-05T05:13:57.857Z,25.65
2022-10-05T05:16:39.724Z,25.12
2022-10-05T05:19:50.832Z,25.08
2022-10-05T05:22:37.180Z,25.40
2022-10-05T05:25:14.905Z,25.88
2022-10-05T05:28:00.162Z,23.40
2022-10-05T05:30:41.974Z,22.61
2022-10-05T05:33:36.509Z,22.08
2022-10-05T05:36:11.134Z,18.68
2022-10-05T05:38:59.601Z,15.89
2022-10-05T05:41:45.430Z,14.83
2022-10-05T05:44:30.165Z,14.63
2022-10-05T05:47:04.436Z,13.52
2022-10-05T05:49:59.987Z,13.24
2022-10-05T05:52:42.334Z,13.00
2022-10-05T05:55:21.033Z,14.86
2022-10-05T05:58:10.386Z,16.56
2022-10-05T06:00:48.891Z,18.66
2022-10-05T06:03:32.819Z,20.62
2022-10-05T06:06:12.275Z,21.35
2022-10-05T06:08:50.325Z,20.83
2022-10-05T06:11:51.583Z,21.67
2022-10-05T06:14:35.319Z,22.36
2022-10-05T06:17:22.016Z,22.98
2022-10-05T06:19:54.087Z,21.81
2022-10-05T06:22:30.761Z,21.06
2022-10-05T06:25:02.773Z,21.96
2022-10-05T06:27:41.415Z,22.84
2022-10-05T06:30:17.968Z,23.71
2022-10-05T06:33:16.724Z,24.03
2022-10-05T06:36:07.339Z,23.66
2022-10-05T06:39:04.428Z,22.79
2022-10-05T06:42:15.418Z,20.71
2022-10-05T06:45:02.937Z,19.56
2022-10-05T06:47:53.626Z,21.27
2022-10-05T06:50:58.934Z,22.79
2022-10-05T06:53:57.532Z,23.74
2022-10-05T06:56:58.766Z,22.42
2022-10-05T07:00:09.807Z,22.05
2022-10-05T07:02:41.912Z,22.75
2022-10-05T07:05:39.939Z,22.60
2022-10-05T07:08:19.592Z,23.31
2022-10-05T07:11:00.506Z,23.70
2022-10-05T07:13:46.963Z,23.94
2022-10-05T07:16:37.481Z,23.76
2022-10-05T07:19:26.648Z,23.37
2022-10-05T07:22:17.669Z,23.09
2022-10-05T07:25:01.614Z,22.62
2022-10-05T07:27:37.184Z,22.31
2022-10-05T07:30:14.351Z,22.20
2022-10-05T07:33:05.900Z,22.11
2022-10-05T07:36:12.350Z,22.04
2022-10-05T07:38:53.715Z,22.30
2022-10-05T07:41:36.925Z,22.56
2022-10-05T07:44:16.179Z,22.72
2022-10-05T07:47:12.596Z,22.66
2022-10-05T07:50:02.256Z,22.37
2022-10-05T07:52:39.551Z,22.28
2022-10-05T07:55:27.590Z,22.14
2022-10-05T07:58:18.183Z,21.55
2022-10-05T08:01:14.237Z,21.33
2022-10-05T08:04:15.971Z,20.89
2022-10-05T08:06:50.589Z,20.59
2022-10-05T08:09:36.882Z,20.41
2022-10-05T08:12:32.939Z,20.24
2022-10-05T08:15:21.151Z,20.17
2022-10-05T08:18:00.668Z,19.96
2022-10-05T08:20:55.041Z,19.85
2022-10-05T08:23:24.565Z,19.86
2022-10-05T08:25:59.412Z,19.76
2022-10-05T08:28:52.318Z,19.36
2022-10-05T08:31:25.991Z,18.71
2022-10-05T08:34:20.726Z,18.17
2022-10-05T08:37:08.791Z,17.56
2022-10-05T08:39:41.474Z,16.42
2022-10-05T08:42:23.444Z,14.77
2022-10-05T08:45:12.181Z,13.07
2022-10-05T08:48:13.361Z,11.76
2022-10-05T08:51:13.063Z,10.73
2022-10-05T08:54:00.573Z,9.97
2022-10-05T08:56:38.534Z,9.30
2022-10-05T08:59:19.827Z,8.73
2022-10-05T09:02:21.955Z,8.20
2022-10-05T09:05:21.503Z,7.68
2022-10-05T09:08:31.633Z,7.22
2022-10-05T09:11:18.443Z,6.96
2022-10-05T09:13:53.029Z,6.82
2022-10-05T09:16:48.786Z,6.60
2022-10-05T09:19:44.677Z,6.48
2022-10-05T09:22:16.602Z,6.36
2022-10-05T09:24:48.458Z,6.26
2022-10-05T09:27:19.470Z,6.20
2022-10-05T09:29:54.163Z,6.08
2022-10-05T09:33:03.558Z,5.89
2022-10-05T09:36:09.773Z,5.75
2022-10-05T09:39:24.440Z,5.62
2022-10-05T09:42:17.362Z,5.52
2022-10-05T09:45:24.359Z,5.43
2022-10-05T09:48:22.451Z,5.21
2022-10-05T09:51:13.024Z,4.98
2022-10-05T09:54:04.491Z,4.80
2022-10-05T09:56:55.596Z,4.63
2022-10-05T09:59:48.740Z,4.46
2022-10-05T10:03:03.182Z,4.26
2022-10-05T10:05:35.218Z,4.11
2022-10-05T10:08:23.198Z,3.99
2022-10-05T10:11:07.146Z,3.93
2022-10-05T10:13:49.809Z,3.86
2022-10-05T10:16:55.174Z,3.73
2022-10-05T10:19:43.096Z,3.54
2022-10-05T10:22:32.481Z,3.42
2022-10-05T10:25:13.177Z,3.29
2022-10-05T10:27:46.249Z,3.18
2022-10-05T10:30:19.522Z,3.09
2022-10-05T10:33:24.125Z,3.00
2022-10-05T10:36:02.914Z,2.91
2022-10-05T10:39:03.514Z,2.81
2022-10-05T10:42:14.514Z,2.64
2022-10-05T10:45:10.800Z,2.54
2022-10-05T10:47:41.610Z,2.45
2022-10-05T10:50:39.132Z,2.38
2022-10-05T10:53:45.095Z,2.33
2022-10-05T10:56:44.576Z,2.24
2022-10-05T10:59:26.575Z,2.19
2022-10-05T11:02:05.052Z,2.15
2022-10-05T11:04:55.728Z,2.11
2022-10-05T11:07:52.760Z,2.07
2022-10-05T11:10:30.656Z,1.99
2022-10-05T11:13:29.935Z,1.95
2022-10-05T11:16:08.610Z,1.89
2022-10-05T11:19:10.793Z,1.83
2022-10-05T11:22:23.635Z,1.78
2022-10-05T11:28:51.184Z,1.67
2022-10-05T11:31:55.304Z,1.57
2022-10-05T11:35:00.896Z,1.61
2022-10-05T11:37:59.269Z,1.58
2022-10-05T11:40:56.104Z,1.51
2022-10-05T11:43:30.645Z,1.47
2022-10-05T11:46:17.565Z,1.42
2022-10-05T11:49:20.673Z,1.39
2022-10-05T11:52:05.578Z,1.43
2022-10-05T11:55:17.164Z,1.43
2022-10-05T11:57:50.688Z,1.38
2022-10-05T12:00:28.836Z,1.32
2022-10-05T12:03:23.220Z,1.26
2022-10-05T12:06:11.563Z,1.25
2022-10-05T12:09:19.050Z,1.20
2022-10-05T12:12:25.322Z,1.08
2022-10-05T12:15:18.317Z,1.09
2022-10-05T12:18:01.401Z,1.07
2022-10-05T12:20:54.827Z,1.10
2022-10-05T12:23:43.252Z,1.12
2022-10-05T12:26:17.364Z,1.11
2022-10-05T12:29:06.104Z,1.10
2022-10-05T12:32:01.525Z,1.11
2022-10-05T12:35:01.732Z,1.13
2022-10-05T12:37:52.790Z,1.13
2022-10-05T12:41:06.105Z,1.13
2022-10-05T12:43:58.616Z,1.16
2022-10-05T12:46:47.096Z,1.06
2022-10-05T12:49:39.086Z,1.10
2022-10-05T12:52:38.477Z,1.07
2022-10-05T12:55:30.812Z,1.08
2022-10-05T12:58:27.340Z,1.12
2022-10-05T13:01:23.541Z,1.16
2022-10-05T13:04:02.109Z,1.23
2022-10-05T13:06:47.478Z,1.35
2022-10-05T13:09:37.857Z,1.44
2022-10-05T13:12:24.336Z,1.51
2022-10-05T13:15:07.576Z,1.55
2022-10-05T13:18:11.963Z,1.61
2022-10-05T13:21:03.373Z,1.64
2022-10-05T13:23:35.472Z,1.72
2022-10-05T13:26:19.752Z,1.68
2022-10-05T13:29:16.001Z,1.76
2022-10-05T13:31:51.312Z,1.77
2022-10-05T13:34:35.994Z,1.79
2022-10-05T13:37:10.567Z,1.77
2022-10-05T13:40:02.002Z,1.75
2022-10-05T13:42:38.586Z,1.81
2022-10-05T13:45:33.594Z,1.84
2022-10-05T13:48:25.733Z,1.86
2022-10-05T13:51:15.814Z,1.86
2022-10-05T13:54:27.879Z,1.86
2022-10-05T13:57:23.475Z,1.89
2022-10-05T13:59:59.085Z,1.91
2022-10-05T14:02:39.281Z,1.92
2022-10-05T14:05:30.280Z,1.94
2022-10-05T14:08:05.116Z,1.93
2022-10-05T14:10:40.436Z,1.92
2022-10-05T14:13:44.945Z,1.91
2022-10-05T14:16:14.328Z,1.89
2022-10-05T14:19:05.302Z,1.84
2022-10-05T14:21:48.297Z,1.81
2022-10-05T14:24:43.771Z,1.87
2022-10-05T14:27:22.132Z,1.90
2022-10-05T14:30:01.088Z,1.92
2022-10-05T14:32:44.439Z,1.96
2022-10-05T14:35:22.972Z,1.99
2022-10-05T14:37:51.913Z,2.03
2022-10-05T14:40:28.761Z,2.05
2022-10-05T14:43:00.518Z,2.03
2022-10-05T14:45:30.577Z,2.12
2022-10-05T14:48:02.382Z,2.12
2022-10-05T14:50:32.677Z,2.13
2022-10-05T14:53:01.490Z,2.14
2022-10-05T14:55:44.311Z,2.16
2022-10-05T14:58:18.938Z,2.17
2022-10-05T15:01:03.699Z,2.20
2022-10-05T15:03:49.305Z,2.25
2022-10-05T15:06:30.076Z,2.28
2022-10-05T15:09:12.408Z,2.32
2022-10-05T15:11:58.905Z,2.35
2022-10-05T15:14:32.538Z,2.43
2022-10-05T15:17:15.680Z,2.45
2022-10-05T15:20:19.332Z,2.44
2022-10-05T15:22:51.065Z,2.44
2022-10-05T15:25:33.388Z,2.34
2022-10-05T15:28:43.478Z,2.38
2022-10-05T15:31:39.854Z,2.40
2022-10-05T15:34:19.313Z,2.35
2022-10-05T15:36:58.528Z,2.39
2022-10-05T15:39:41.180Z,2.35
2022-10-05T15:42:17.476Z,2.37
2022-10-05T15:44:49.612Z,2.31
2022-10-05T15:47:44.664Z,2.23
2022-10-05T15:50:24.871Z,2.24
2022-10-05T15:53:20.399Z,2.25
2022-10-05T15:56:14.077Z,2.21
2022-10-05T15:59:19.122Z,2.17
2022-10-05T16:01:57.200Z,2.13
2022-10-05T16:05:04.741Z,2.10
2022-10-05T16:08:08.285Z,2.02
2022-10-05T16:10:43.600Z,1.99
2022-10-05T16:13:21.131Z,1.97
2022-10-05T16:16:02.512Z,1.95
2022-10-05T16:18:52.222Z,1.92
2022-10-05T16:21:33.688Z,1.93
2022-10-05T16:24:41.041Z,1.94
2022-10-05T16:27:32.540Z,1.94
2022-10-05T16:30:10.363Z,1.96
2022-10-05T16:33:11.026Z,1.96
2022-10-05T16:35:56.472Z,1.99
2022-10-05T16:38:50.097Z,2.02
2022-10-05T16:41:55.529Z,2.07
2022-10-05T16:44:45.431Z,2.20
2022-10-05T16:47:40.403Z,2.33
2022-10-05T16:50:29.938Z,2.43
2022-10-05T16:53:15.727Z,2.42
2022-10-05T16:55:52.853Z,2.49
2022-10-05T16:58:26.297Z,2.56
2022-10-05T17:01:25.443Z,2.60
2022-10-05T17:04:12.778Z,2.63
2022-10-05T17:07:05.406Z,2.58
2022-10-05T17:09:59.953Z,2.58
2022-10-05T17:12:46.373Z,2.53
2022-10-05T17:15:29.786Z,2.46
2022-10-05T17:18:17.296Z,2.39
2022-10-05T17:20:55.505Z,2.34
2022-10-05T17:23:40.442Z,2.32
2022-10-05T17:26:28.971Z,2.30
2022-10-05T17:29:26.215Z,2.26
2022-10-05T17:32:01.670Z,2.27
2022-10-05T17:34:35.403Z,2.28
2022-10-05T17:37:40.735Z,2.33
2022-10-05T17:40:33.251Z,2.36
2022-10-05T17:43:25.937Z,2.36
2022-10-05T17:45:56.582Z,2.36
2022-10-05T17:48:49.946Z,2.34
2022-10-05T17:51:49.287Z,2.32
2022-10-05T17:55:09.921Z,2.32
2022-10-05T17:57:40.212Z,2.30
2022-10-05T18:00:34.174Z,2.28
2022-10-05T18:03:36.664Z,2.27
2022-10-05T18:06:28.827Z,2.28
2022-10-05T18:09:21.348Z,2.30
2022-10-05T18:12:12.014Z,2.31
2022-10-05T18:15:01.572Z,2.34
2022-10-05T18:17:37.721Z,2.35
2022-10-05T18:20:30.486Z,2.35
2022-10-05T18:23:07.876Z,2.35
2022-10-05T18:25:52.920Z,2.35
2022-10-05T18:28:28.001Z,2.38
2022-10-05T18:31:06.118Z,2.40
2022-10-05T18:34:08.038Z,2.44
2022-10-05T18:36:52.431Z,2.49
2022-10-05T18:39:54.446Z,2.49
2022-10-05T18:42:45.583Z,2.52
2022-10-05T18:45:26.850Z,2.49
2022-10-05T18:48:39.543Z,2.40
2022-10-05T18:51:15.671Z,2.24
2022-10-05T18:53:54.218Z,2.13
2022-10-05T18:56:35.105Z,2.10
2022-10-05T18:59:19.172Z,2.06
2022-10-05T19:02:01.254Z,1.95
2022-10-05T19:04:53.457Z,1.81
2022-10-05T19:07:38.950Z,1.66
2022-10-05T19:10:18.538Z,1.55
2022-10-05T19:12:59.822Z,1.47
2022-10-05T19:15:52.195Z,1.39
2022-10-05T19:18:58.315Z,1.31
2022-10-05T19:21:42.365Z,1.38
2022-10-05T19:24:29.250Z,1.35
2022-10-05T19:26:57.977Z,1.36
2022-10-05T19:29:51.223Z,1.35
2022-10-05T19:32:37.190Z,1.35
2022-10-05T19:35:17.832Z,1.41
2022-10-05T19:41:20.138Z,1.46
2022-10-05T19:44:07.315Z,1.48
2022-10-05T19:47:06.397Z,1.49
2022-10-05T19:50:20.186Z,1.53
2022-10-05T19:52:52.412Z,1.51
2022-10-05T19:55:21.182Z,1.50
2022-10-05T19:57:55.655Z,1.51
2022-10-05T20:00:46.393Z,1.50
2022-10-05T20:03:27.047Z,1.54
2022-10-05T20:06:00.932Z,1.55
2022-10-05T20:08:42.415Z,1.57
2022-10-05T20:11:15.086Z,1.58
2022-10-05T20:13:53.011Z,1.52
2022-10-05T20:16:51.687Z,1.49
2022-10-05T20:19:51.094Z,1.50
2022-10-05T20:22:46.658Z,1.50
2022-10-05T20:25:18.454Z,1.50
2022-10-05T20:27:50.033Z,1.49
2022-10-05T20:30:24.308Z,1.48
2022-10-05T20:32:58.780Z,1.51
2022-10-05T20:35:31.086Z,1.51
2022-10-05T20:38:00.652Z,1.48
2022-10-05T20:40:32.329Z,1.47
2022-10-05T20:43:01.116Z,1.49
2022-10-05T20:45:29.877Z,1.51
2022-10-05T20:47:58.613Z,1.58
2022-10-05T20:50:28.159Z,1.62
2022-10-05T20:52:59.443Z,1.64
2022-10-05T20:55:31.766Z,1.68
2022-10-05T20:58:01.363Z,1.70
2022-10-05T21:00:51.225Z,1.64
2022-10-05T21:03:20.267Z,1.58
2022-10-05T21:05:49.058Z,1.52
2022-10-05T21:08:18.385Z,1.45
2022-10-05T21:10:47.186Z,1.42
2022-10-05T21:13:15.923Z,1.38
2022-10-05T21:15:45.491Z,1.32
2022-10-05T21:18:16.311Z,1.24
2022-10-05T21:20:47.153Z,1.16
2022-10-05T21:23:15.879Z,1.02
2022-10-05T21:25:44.673Z,1.07
2022-10-05T21:28:13.495Z,1.01
2022-10-05T21:30:42.242Z,1.00
2022-10-05T21:33:11.205Z,0.95
2022-10-05T21:35:39.968Z,0.83
2022-10-05T21:38:08.725Z,0.81
2022-10-05T21:40:37.510Z,0.80
2022-10-05T21:43:06.304Z,0.69
2022-10-05T21:45:36.273Z,0.83
2022-10-05T21:48:06.176Z,0.84
2022-10-05T21:50:35.811Z,0.84
2022-10-05T21:53:07.867Z,0.82
2022-10-05T21:55:40.068Z,0.83
2022-10-05T21:58:09.349Z,0.81
2022-10-05T22:00:39.095Z,0.80
2022-10-05T22:03:09.356Z,0.70
2022-10-05T22:05:38.418Z,0.70
2022-10-05T22:08:07.248Z,0.67
2022-10-05T22:10:35.989Z,0.66
2022-10-05T22:13:05.244Z,0.70
2022-10-05T22:15:34.034Z,0.75
2022-10-05T22:20:56.695Z,0.68
2022-10-05T22:23:25.449Z,0.73
2022-10-05T22:25:54.548Z,0.72
2022-10-05T22:28:23.349Z,0.67
2022-10-05T22:30:52.110Z,0.69
2022-10-05T22:33:20.898Z,0.73
2022-10-05T22:35:49.816Z,0.74
2022-10-05T22:38:18.548Z,0.73
2022-10-05T22:40:47.411Z,0.73
2022-10-05T22:43:16.817Z,0.64
2022-10-05T22:45:45.563Z,0.59
2022-10-05T22:48:14.517Z,0.55
2022-10-05T22:50:47.034Z,0.53
2022-10-05T22:53:18.896Z,0.48
2022-10-05T22:55:47.621Z,0.58
2022-10-05T22:58:16.396Z,0.58
2022-10-05T23:00:58.026Z,0.63
2022-10-05T23:03:27.696Z,0.58
2022-10-05T23:06:04.938Z,0.61
2022-10-05T23:08:35.816Z,0.60
2022-10-05T23:11:16.163Z,0.54
2022-10-05T23:13:45.554Z,0.58
2022-10-05T23:16:16.759Z,0.58
2022-10-05T23:18:47.747Z,0.56
2022-10-05T23:21:17.164Z,0.53
2022-10-05T23:23:51.827Z,0.52
2022-10-05T23:26:22.781Z,0.49
2022-10-05T23:28:52.032Z,0.50
2022-10-05T23:31:24.350Z,0.51
2022-10-05T23:33:54.264Z,0.48
2022-10-05T23:36:25.476Z,0.53
2022-10-05T23:38:55.069Z,0.47
2022-10-05T23:41:24.228Z,0.57
2022-10-05T23:43:55.347Z,0.58
2022-10-05T23:46:25.346Z,0.53
2022-10-05T23:48:54.218Z,0.45
2022-10-05T23:51:23.053Z,0.52
2022-10-05T23:53:51.902Z,0.48
2022-10-05T23:56:20.769Z,0.46
2022-10-05T23:58:49.592Z,0.48
